createdAt,value
2023-11-07T00:02:24.974Z,29.60
2023-11-07T00:04:52.833Z,34.10
2023-11-07T00:07:20.186Z,32.60
2023-11-07T00:09:47.499Z,33.40
2023-11-07T00:12:14.837Z,33.90
2023-11-07T00:14:42.160Z,30.30
2023-11-07T00:17:10.420Z,32.20
2023-11-07T00:19:37.934Z,31.90
2023-11-07T00:22:05.647Z,36.40
2023-11-07T00:24:33.015Z,35.40
2023-11-07T00:27:00.699Z,33.30
2023-11-07T00:29:29.625Z,36.20
2023-11-07T00:32:15.562Z,34.00
2023-11-07T00:34:43.255Z,35.90
2023-11-07T00:37:10.977Z,32.30
2023-11-07T00:39:38.300Z,35.50
2023-11-07T00:42:06.291Z,33.90
2023-11-07T00:44:33.789Z,34.40
2023-11-07T00:47:01.456Z,31.30
2023-11-07T00:49:29.290Z,31.50
2023-11-07T00:51:56.850Z,31.20
2023-11-07T00:54:24.604Z,36.10
2023-11-07T00:56:51.919Z,35.70
2023-11-07T00:59:19.634Z,31.00
2023-11-07T01:01:47.049Z,30.60
2023-11-07T01:04:14.524Z,33.00
2023-11-07T01:06:42.065Z,36.00
2023-11-07T01:09:13.166Z,33.30
2023-11-07T01:11:41.428Z,38.50
2023-11-07T01:14:09.180Z,33.40
2023-11-07T01:16:37.657Z,37.20
2023-11-07T01:19:05.177Z,38.30
2023-11-07T01:21:32.772Z,30.60
2023-11-07T01:24:00.245Z,34.50
2023-11-07T01:26:27.811Z,31.60
2023-11-07T01:28:55.257Z,33.20
2023-11-07T01:31:23.327Z,32.00
2023-11-07T01:33:50.932Z,32.50
2023-11-07T01:36:18.359Z,33.30
2023-11-07T01:38:45.856Z,32.90
2023-11-07T01:41:13.228Z,38.90
2023-11-07T01:43:40.940Z,38.10
2023-11-07T01:46:09.065Z,32.60
2023-11-07T01:48:37.625Z,35.40
2023-11-07T01:51:05.677Z,34.90
2023-11-07T01:53:33.586Z,33.00
2023-11-07T01:56:01.086Z,36.40
2023-11-07T01:58:28.856Z,41.90
2023-11-07T02:00:56.389Z,34.50
2023-11-07T02:03:25.746Z,32.50
2023-11-07T02:05:53.346Z,31.30
2023-11-07T02:08:24.388Z,29.70
2023-11-07T02:10:51.930Z,33.20
2023-11-07T02:13:19.540Z,30.80
2023-11-07T02:15:46.905Z,32.50
2023-11-07T02:18:14.454Z,31.80
2023-11-07T02:20:43.169Z,33.20
2023-11-07T02:23:30.512Z,32.60
2023-11-07T02:25:58.035Z,35.10
2023-11-07T02:28:25.656Z,31.30
2023-11-07T02:30:54.046Z,32.40
2023-11-07T02:33:22.182Z,40.10
2023-11-07T02:35:49.676Z,29.90
2023-11-07T02:38:20.697Z,29.10
2023-11-07T02:40:50.436Z,32.70
2023-11-07T02:43:17.952Z,30.70
2023-11-07T02:45:45.413Z,31.50
2023-11-07T02:48:12.878Z,34.10
2023-11-07T02:50:41.509Z,31.20
2023-11-07T02:53:08.961Z,26.60
2023-11-07T02:55:36.748Z,30.20
2023-11-07T02:58:04.078Z,29.60
2023-11-07T03:00:31.405Z,28.30
2023-11-07T03:02:59.882Z,31.50
2023-11-07T03:05:27.554Z,25.40
2023-11-07T03:07:54.989Z,25.60
2023-11-07T03:10:22.377Z,22.30
2023-11-07T03:12:49.701Z,30.30
2023-11-07T03:15:17.070Z,22.40
2023-11-07T03:17:44.969Z,25.50
2023-11-07T03:20:13.015Z,23.60
2023-11-07T03:22:40.449Z,28.40
2023-11-07T03:25:08.431Z,32.80
2023-11-07T03:27:38.366Z,43.80
2023-11-07T03:30:07.216Z,60.10
2023-11-07T03:32:34.769Z,33.80
2023-11-07T03:35:02.750Z,43.40
2023-11-07T03:37:31.036Z,38.20
2023-11-07T03:39:58.444Z,29.10
2023-11-07T03:42:26.213Z,23.90
2023-11-07T03:44:53.599Z,21.20
2023-11-07T03:47:21.406Z,21.40
2023-11-07T03:49:48.744Z,21.20
2023-11-07T03:52:17.402Z,32.90
2023-11-07T03:54:44.877Z,26.20
2023-11-07T03:57:12.232Z,40.10
2023-11-07T03:59:40.149Z,45.80
2023-11-07T04:02:07.647Z,33.70
2023-11-07T04:04:35.445Z,24.60
2023-11-07T04:07:02.788Z,31.70
2023-11-07T04:09:30.539Z,23.00
2023-11-07T04:11:57.940Z,22.50
2023-11-07T04:14:25.305Z,21.90
2023-11-07T04:16:52.717Z,20.40
2023-11-07T04:19:20.305Z,23.10
2023-11-07T04:21:47.682Z,23.40
2023-11-07T04:24:16.763Z,25.10
2023-11-07T04:26:45.028Z,21.00
2023-11-07T04:29:12.947Z,21.90
2023-11-07T04:31:41.332Z,22.40
2023-11-07T04:34:11.406Z,39.60
2023-11-07T04:36:43.314Z,33.50
2023-11-07T04:39:12.383Z,38.70
2023-11-07T04:41:40.134Z,26.20
2023-11-07T04:44:07.455Z,26.80
2023-11-07T04:46:40.360Z,24.00
2023-11-07T04:49:09.203Z,133.50
2023-11-07T04:51:37.807Z,95.70
2023-11-07T04:54:05.435Z,52.20
2023-11-07T04:56:33.897Z,40.50
2023-11-07T04:59:01.366Z,30.70
2023-11-07T05:01:28.752Z,23.90
2023-11-07T05:03:56.318Z,22.00
2023-11-07T05:06:24.912Z,24.20
2023-11-07T05:08:52.846Z,23.40
2023-11-07T05:11:20.346Z,33.90
2023-11-07T05:13:47.752Z,26.10
2023-11-07T05:16:15.167Z,30.20
2023-11-07T05:18:42.703Z,36.30
2023-11-07T05:21:10.162Z,45.10
2023-11-07T05:23:39.175Z,34.80
2023-11-07T05:26:07.504Z,55.90
2023-11-07T05:28:34.986Z,44.00
2023-11-07T05:31:02.368Z,41.70
2023-11-07T05:33:29.864Z,27.30
2023-11-07T05:35:57.874Z,25.50
2023-11-07T05:38:25.573Z,19.90
2023-11-07T05:40:53.045Z,27.60
2023-11-07T05:43:20.658Z,25.10
2023-11-07T05:45:48.085Z,26.60
2023-11-07T05:48:15.622Z,26.90
2023-11-07T05:50:43.851Z,29.60
2023-11-07T05:53:11.507Z,39.50
2023-11-07T05:55:38.859Z,29.20
2023-11-07T05:58:08.522Z,29.90
2023-11-07T06:00:36.100Z,29.40
2023-11-07T06:03:03.918Z,33.20
2023-11-07T06:05:33.230Z,50.50
2023-11-07T06:08:00.713Z,45.20
2023-11-07T06:10:28.302Z,30.60
2023-11-07T06:12:55.651Z,30.90
2023-11-07T06:15:23.410Z,28.90
2023-11-07T06:17:50.874Z,36.10
2023-11-07T06:20:19.942Z,45.10
2023-11-07T06:22:47.536Z,55.40
2023-11-07T06:25:19.864Z,36.90
2023-11-07T11:19:01.368Z,46.20
2023-11-07T11:21:53.921Z,47.30
2023-11-07T11:24:59.829Z,43.70
2023-11-07T11:27:31.389Z,41.00
2023-11-07T11:29:59.026Z,39.10
2023-11-07T11:32:28.391Z,40.70
2023-11-07T11:35:17.742Z,41.80
2023-11-07T11:38:14.626Z,39.80
2023-11-07T11:41:01.730Z,37.50
2023-11-07T11:43:33.709Z,39.60
2023-11-07T11:46:14.806Z,42.30
2023-11-07T11:48:51.591Z,38.70
2023-11-07T11:51:31.438Z,31.50
2023-11-07T11:54:00.542Z,37.90
2023-11-07T11:56:29.740Z,37.80
2023-11-07T11:59:08.024Z,40.60
2023-11-07T12:01:56.687Z,33.80
2023-11-07T12:04:40.125Z,30.60
2023-11-07T12:07:10.872Z,31.20
2023-11-07T12:09:48.846Z,38.50
2023-11-07T12:12:17.349Z,40.00
2023-11-07T12:14:59.124Z,33.00
2023-11-07T12:17:29.554Z,31.90
2023-11-07T12:20:06.913Z,20.50
2023-11-07T12:22:37.764Z,24.60
2023-11-07T12:25:18.804Z,21.20
2023-11-07T12:28:07.724Z,17.60
2023-11-07T12:30:35.819Z,19.80
2023-11-07T12:33:05.228Z,14.20
2023-11-07T12:35:32.995Z,14.80
2023-11-07T12:38:04.672Z,16.80
2023-11-07T12:40:32.609Z,12.00
2023-11-07T12:43:00.124Z,9.30
2023-11-07T12:45:35.270Z,3.80
2023-11-07T12:48:08.024Z,4.40
2023-11-07T12:50:48.314Z,6.00
2023-11-07T12:53:18.788Z,6.90
2023-11-07T12:55:53.082Z,8.10
2023-11-07T12:58:31.511Z,5.10
2023-11-07T13:01:00.717Z,6.30
2023-11-07T13:03:35.427Z,4.30
2023-11-07T13:06:10.950Z,6.90
2023-11-07T13:08:42.952Z,9.60
2023-11-07T13:11:17.348Z,9.40
2023-11-07T13:13:46.579Z,4.70
2023-11-07T13:16:14.403Z,6.00
2023-11-07T13:18:46.029Z,6.20
2023-11-07T13:21:13.893Z,8.70
2023-11-07T13:23:41.436Z,7.30
2023-11-07T13:26:09.120Z,5.30
2023-11-07T13:28:38.065Z,4.80
2023-11-07T13:31:06.391Z,6.50
2023-11-07T13:33:34.645Z,6.40
2023-11-07T13:36:02.330Z,4.40
2023-11-07T13:38:30.685Z,6.10
2023-11-07T13:40:58.422Z,8.50
2023-11-07T13:43:25.969Z,11.40
2023-11-07T13:45:55.190Z,12.90
2023-11-07T13:48:23.167Z,6.90
2023-11-07T13:50:52.351Z,5.60
2023-11-07T13:53:20.504Z,8.00
2023-11-07T13:55:48.197Z,7.40
2023-11-07T13:58:15.797Z,4.90
2023-11-07T14:00:43.437Z,6.50
2023-11-07T14:03:11.410Z,7.20
2023-11-07T14:05:38.996Z,6.90
2023-11-07T14:08:06.380Z,5.80
2023-11-07T14:10:34.734Z,10.50
2023-11-07T14:13:02.212Z,6.80
2023-11-07T14:15:34.152Z,8.90
2023-11-07T14:18:13.401Z,9.40
2023-11-07T14:20:53.067Z,6.60
2023-11-07T14:23:20.560Z,10.10
2023-11-07T14:25:48.982Z,11.60
2023-11-07T14:28:16.650Z,11.40
2023-11-07T14:30:47.391Z,8.30
2023-11-07T14:33:17.070Z,9.40
2023-11-07T14:35:45.656Z,10.90
2023-11-07T14:38:13.002Z,7.40
2023-11-07T14:40:40.411Z,19.60
2023-11-07T14:43:16.096Z,13.40
2023-11-07T14:45:45.809Z,12.20
2023-11-07T14:48:15.860Z,20.40
2023-11-07T14:50:44.551Z,27.10
2023-11-07T14:53:12.412Z,18.00
2023-11-07T14:55:40.426Z,18.80
2023-11-07T14:58:08.821Z,25.00
2023-11-07T15:00:42.861Z,13.70
2023-11-07T15:03:11.764Z,20.20
2023-11-07T15:05:41.075Z,19.20
2023-11-07T15:08:08.816Z,30.40
2023-11-07T15:10:36.774Z,32.10
2023-11-07T15:13:05.544Z,28.40
2023-11-07T15:15:34.645Z,28.70
2023-11-07T15:18:03.166Z,20.20
2023-11-07T15:20:32.839Z,15.20
2023-11-07T15:23:02.762Z,21.00
2023-11-07T15:25:35.481Z,27.20
2023-11-07T15:28:04.085Z,29.10
2023-11-07T15:30:32.929Z,22.30
2023-11-07T15:33:02.862Z,26.40
2023-11-07T15:35:37.182Z,48.50
2023-11-07T15:38:07.945Z,45.60
2023-11-07T15:40:36.627Z,58.00
2023-11-07T15:43:06.318Z,35.30
2023-11-07T15:45:34.962Z,39.20
2023-11-07T15:48:09.108Z,28.90
2023-11-07T15:50:37.894Z,58.20
2023-11-07T15:53:08.657Z,65.00
2023-11-07T15:55:38.327Z,83.50
2023-11-07T15:58:06.269Z,44.70
2023-11-07T16:00:34.704Z,46.20
2023-11-07T16:03:05.331Z,64.50
2023-11-07T16:05:36.637Z,60.30
2023-11-07T16:08:07.798Z,87.10
2023-11-07T16:10:36.240Z,135.00
2023-11-07T16:13:04.747Z,142.80
2023-11-07T16:15:32.721Z,163.00
2023-11-07T16:18:00.725Z,167.60
2023-11-07T16:20:28.339Z,118.70
2023-11-07T16:22:57.925Z,93.80
2023-11-07T16:25:25.587Z,64.00
2023-11-07T16:27:54.199Z,54.30
2023-11-07T16:30:22.716Z,54.50
2023-11-07T16:32:50.644Z,87.90
2023-11-07T16:35:18.368Z,47.50
2023-11-07T16:37:46.347Z,39.70
2023-11-07T16:40:18.260Z,28.80
2023-11-07T16:42:48.271Z,51.10
2023-11-07T16:45:16.548Z,51.10
2023-11-07T16:47:45.023Z,45.50
2023-11-07T16:50:16.619Z,190.10
2023-11-07T16:52:44.132Z,123.50
2023-11-07T16:55:15.153Z,205.10
2023-11-07T16:57:43.889Z,251.70
2023-11-07T17:00:13.957Z,293.90
2023-11-07T17:02:42.501Z,249.20
2023-11-07T17:05:16.890Z,232.00
2023-11-07T17:07:45.715Z,386.20
2023-11-07T17:10:13.388Z,301.80
2023-11-07T17:12:40.907Z,296.60
2023-11-07T17:15:11.425Z,386.70
2023-11-07T17:17:41.352Z,372.80
2023-11-07T17:20:09.715Z,422.30
2023-11-07T17:22:38.925Z,385.20
2023-11-07T17:25:08.107Z,279.30
2023-11-07T17:27:36.546Z,280.10
2023-11-07T17:30:05.516Z,206.50
2023-11-07T17:40:11.564Z,195.90
2023-11-07T17:42:40.148Z,144.80
2023-11-07T17:45:08.268Z,117.70
2023-11-07T17:47:35.875Z,96.50
2023-11-07T17:50:04.053Z,86.90
2023-11-07T17:52:31.615Z,174.90
2023-11-07T17:55:02.104Z,102.60
2023-11-07T17:57:30.037Z,91.40
2023-11-07T17:59:58.885Z,79.90
2023-11-07T18:02:27.842Z,130.90
2023-11-07T18:04:55.921Z,109.00
2023-11-07T18:07:23.700Z,115.20
2023-11-07T18:09:52.500Z,76.20
2023-11-07T18:12:21.136Z,130.90
2023-11-07T18:14:48.819Z,99.90
2023-11-07T18:17:16.389Z,87.70
2023-11-07T18:19:43.913Z,82.20
2023-11-07T18:22:11.537Z,70.80
2023-11-07T18:24:39.054Z,84.30
2023-11-07T18:27:06.772Z,98.40
2023-11-07T18:29:35.392Z,102.90
2023-11-07T18:32:04.729Z,110.10
2023-11-07T18:34:32.294Z,106.80
2023-11-07T18:37:03.678Z,125.80
2023-11-07T18:39:35.168Z,125.30
2023-11-07T18:42:04.542Z,114.70
2023-11-07T18:44:35.998Z,119.80
2023-11-07T18:49:33.124Z,118.00
2023-11-07T18:52:01.210Z,115.00
2023-11-07T18:54:29.127Z,116.90
2023-11-07T18:56:58.818Z,120.20
2023-11-07T18:59:34.328Z,119.40
2023-11-07T19:02:06.944Z,133.10
2023-11-07T19:04:37.982Z,138.50
2023-11-07T19:07:07.344Z,132.70
2023-11-07T19:09:35.296Z,157.20
2023-11-07T19:12:03.256Z,169.00
2023-11-07T19:14:31.522Z,156.20
2023-11-07T19:16:59.440Z,161.20
2023-11-07T19:19:28.707Z,170.90
2023-11-07T19:21:59.588Z,141.50
2023-11-07T19:24:27.539Z,119.00
2023-11-07T19:26:55.398Z,95.10
2023-11-07T19:29:22.918Z,171.60
2023-11-07T19:31:51.708Z,157.60
2023-11-07T19:34:22.963Z,159.00
2023-11-07T19:36:56.870Z,183.90
2023-11-07T19:39:30.450Z,336.90
2023-11-07T19:42:03.089Z,255.50
2023-11-07T19:44:31.693Z,164.70
2023-11-07T19:46:59.249Z,149.90
2023-11-07T19:49:29.884Z,145.20
2023-11-07T19:51:59.450Z,119.70
2023-11-07T19:54:28.007Z,108.30
2023-11-07T19:56:55.814Z,106.30
2023-11-07T19:59:23.457Z,106.40
2023-11-07T20:01:50.963Z,101.50
2023-11-07T20:04:18.622Z,103.70
2023-11-07T20:06:48.188Z,102.10
2023-11-07T20:09:17.058Z,99.30
2023-11-07T20:11:44.674Z,119.70
2023-11-07T20:14:12.542Z,115.50
2023-11-07T20:16:40.254Z,108.30
2023-11-07T20:19:09.077Z,99.00
2023-11-07T20:21:36.874Z,84.00
2023-11-07T20:24:05.446Z,70.70
2023-11-07T20:26:32.814Z,58.60
2023-11-07T20:29:00.177Z,62.20
2023-11-07T20:31:27.848Z,63.40
2023-11-07T20:33:57.631Z,69.30
2023-11-07T20:36:25.239Z,70.60
2023-11-07T20:38:54.880Z,87.90
2023-11-07T20:41:23.111Z,87.90
2023-11-07T20:43:55.946Z,104.20
2023-11-07T20:46:33.284Z,118.20
2023-11-07T20:49:04.200Z,104.70
2023-11-07T20:51:33.269Z,97.00
2023-11-07T20:54:00.874Z,101.30
2023-11-07T20:56:30.753Z,95.90
2023-11-07T20:58:58.955Z,86.90
2023-11-07T21:01:29.384Z,88.60
2023-11-07T21:11:33.782Z,58.30
2023-11-07T21:14:01.410Z,70.20
2023-11-07T21:16:29.034Z,72.40
2023-11-07T21:18:58.889Z,68.80
2023-11-07T21:21:27.075Z,69.30
2023-11-07T21:23:54.769Z,72.00
2023-11-07T21:26:24.976Z,72.50
2023-11-07T21:28:53.722Z,71.70
2023-11-07T21:31:21.513Z,74.60
2023-11-07T21:33:48.985Z,69.70
2023-11-07T21:36:16.560Z,76.00
2023-11-07T21:38:44.717Z,79.70
2023-11-07T21:41:12.099Z,91.00
2023-11-07T21:43:39.457Z,101.70
2023-11-07T21:46:08.691Z,126.00
2023-11-07T21:48:36.258Z,151.80
2023-11-07T21:51:06.078Z,145.40
2023-11-07T21:53:33.483Z,151.60
2023-11-07T21:56:00.896Z,149.80
2023-11-07T21:58:28.238Z,150.00
2023-11-07T22:00:56.043Z,146.40
2023-11-07T22:03:23.790Z,151.20
2023-11-07T22:05:51.328Z,165.40
2023-11-07T22:08:18.693Z,155.40
2023-11-07T22:10:46.037Z,160.20
2023-11-07T22:13:13.519Z,147.20
2023-11-07T22:15:40.979Z,150.40
2023-11-07T22:18:10.140Z,147.70
2023-11-07T22:20:39.337Z,149.60
2023-11-07T22:23:06.782Z,147.00
2023-11-07T22:25:34.163Z,145.50
2023-11-07T22:28:01.531Z,122.50
2023-11-07T22:30:28.864Z,112.50
2023-11-07T22:32:56.287Z,121.90
2023-11-07T22:35:23.992Z,109.30
2023-11-07T22:37:51.767Z,134.20
2023-11-07T22:40:19.190Z,176.60
2023-11-07T22:42:46.862Z,169.90
2023-11-07T22:45:15.449Z,159.60
2023-11-07T22:47:46.345Z,160.40
2023-11-07T22:50:13.722Z,114.10
2023-11-07T22:52:41.115Z,111.40
2023-11-07T22:55:12.834Z,115.10
2023-11-07T23:00:11.705Z,102.30
2023-11-07T23:02:39.380Z,119.70
2023-11-07T23:05:08.124Z,98.90
2023-11-07T23:07:35.631Z,94.60
2023-11-07T23:10:03.448Z,90.30
2023-11-07T23:12:30.830Z,84.00
2023-11-07T23:14:58.452Z,82.00
2023-11-07T23:17:25.769Z,86.10
2023-11-07T23:19:53.119Z,90.70
2023-11-07T23:22:20.966Z,88.10
2023-11-07T23:24:48.704Z,78.60
2023-11-07T23:27:16.141Z,71.10
2023-11-07T23:29:46.459Z,54.40
2023-11-07T23:32:13.788Z,71.00
2023-11-07T23:37:02.009Z,79.40
2023-11-07T23:39:30.383Z,72.90
2023-11-07T23:41:57.985Z,79.70
2023-11-07T23:44:27.677Z,72.70
2023-11-07T23:46:55.164Z,77.90
2023-11-07T23:49:22.761Z,73.10
2023-11-07T23:51:50.330Z,73.90
2023-11-07T23:54:17.709Z,69.70
2023-11-07T23:56:45.160Z,64.30
2023-11-07T23:59:12.482Z,69.70
